Terminal Aerodrome Forecast
Issued by NWS Portland, OR

Home | Current Version | Previous Version | Text Only | Print | Product List | Glossary On
Versions: 1 2 3 4 5 6 7 8 9 10 11 12 13 14 15 16 17 18 19 20 21 22 23 24 25 26
000
FTUS46 KPQR 181738
TAFHIO
TAF
KHIO 181738Z 1818/1918 VRB03KT P6SM VCSH SCT005 BKN025 OVC060
     FM182000 28004KT P6SM BKN050 OVC070
     FM191000 VRB03KT P6SM BKN025 OVC035
     FM191600 26004KT P6SM SCT025 BKN040=

USA.gov is the U.S. government's official web portal to all federal, state and local government web resources and services.